Time;durP1;ratioP1;P1;durP2;ratioP2;P2;SDS_P1;SDS_P2;PMS_P1;PMS_P2;Temp;Humidity;BMP_temperature;BMP_pressure;BME280_temperature;BME280_humidity;BME280_pressure;Samples;Min_cycle;Max_cycle;Signal;HPM_P1;HPM_P2
2022/06/11 00:00:24;;;;;;;10.10;6.80;;;;;;;;;;5071245;28;20075;-69
2022/06/11 00:02:50;;;;;;;10.75;7.88;;;;;;;;;;5073492;28;20050;-69
2022/06/11 00:05:15;;;;;;;9.07;7.22;;;;;;;;;;5073625;28;20036;-72
2022/06/11 00:07:41;;;;;;;14.80;7.38;;;;;;;;;;5073631;28;20612;-70
2022/06/11 00:10:08;;;;;;;14.50;7.38;;;;;;;;;;5073608;28;20037;-69
2022/06/11 00:12:34;;;;;;;9.07;6.50;;;;;;;;;;5064046;28;20580;-69
2022/06/11 00:14:59;;;;;;;12.27;6.82;;;;;;;;;;5073211;28;20056;-69
2022/06/11 00:17:27;;;;;;;9.65;6.82;;;;;;;;;;5053576;28;20033;-69
2022/06/11 00:19:54;;;;;;;9.05;6.95;;;;;;;;;;5053547;28;20029;-70
2022/06/11 00:22:21;;;;;;;10.52;7.90;;;;;;;;;;5051996;28;20039;-70
2022/06/11 00:24:48;;;;;;;14.15;7.50;;;;;;;;;;5067171;28;20423;-70
2022/06/11 00:27:16;;;;;;;10.00;6.95;;;;;;;;;;5073189;28;20040;-69
2022/06/11 00:29:43;;;;;;;13.15;7.65;;;;;;;;;;5055200;28;20127;-70
2022/06/11 00:32:10;;;;;;;13.73;8.10;;;;;;;;;;5055187;28;20081;-70
2022/06/11 00:34:37;;;;;;;13.45;8.57;;;;;;;;;;5056800;28;20021;-70
2022/06/11 00:37:03;;;;;;;11.07;7.97;;;;;;;;;;5072633;28;20489;-69
2022/06/11 00:39:32;;;;;;;10.55;8.32;;;;;;;;;;5073013;28;20039;-70
2022/06/11 00:42:03;;;;;;;9.30;7.43;;;;;;;;;;5054554;28;20078;-70
2022/06/11 00:44:29;;;;;;;11.13;8.00;;;;;;;;;;5068860;28;20051;-73
2022/06/11 00:47:19;;;;;;;12.80;8.40;;;;;;;;;;5067890;28;20040;-70
2022/06/11 00:49:53;;;;;;;16.23;7.50;;;;;;;;;;5052737;28;20064;-71
2022/06/11 00:52:38;;;;;;;13.02;7.60;;;;;;;;;;5053257;28;20037;-71
2022/06/11 00:55:08;;;;;;;11.77;7.18;;;;;;;;;;5052576;28;20037;-71
2022/06/11 00:57:39;;;;;;;11.68;7.65;;;;;;;;;;5064673;28;20063;-71
2022/06/11 01:00:12;;;;;;;11.70;7.68;;;;;;;;;;5072451;28;20056;-71
2022/06/11 01:02:38;;;;;;;9.30;7.35;;;;;;;;;;5052120;28;20041;-71
2022/06/11 01:05:05;;;;;;;13.63;7.85;;;;;;;;;;5051723;28;20040;-71
2022/06/11 01:07:46;;;;;;;13.35;8.35;;;;;;;;;;5055175;28;20142;-71
2022/06/11 01:10:31;;;;;;;11.13;9.13;;;;;;;;;;5072202;28;20051;-71
2022/06/11 01:13:16;;;;;;;12.00;9.63;;;;;;;;;;5072515;28;20111;-71
2022/06/11 01:16:12;;;;;;;14.13;8.68;;;;;;;;;;5048948;28;20036;-71
2022/06/11 01:18:45;;;;;;;13.85;8.20;;;;;;;;;;5056076;28;20494;-71
2022/06/11 01:21:35;;;;;;;12.50;9.45;;;;;;;;;;5071491;28;20047;-71
2022/06/11 01:24:31;;;;;;;13.77;8.20;;;;;;;;;;5072627;28;20465;-71
2022/06/11 01:27:20;;;;;;;11.85;8.23;;;;;;;;;;5072225;28;20112;-71
2022/06/11 01:30:17;;;;;;;10.48;7.88;;;;;;;;;;5070577;28;20024;-71
2022/06/11 01:33:00;;;;;;;15.85;8.10;;;;;;;;;;5045412;28;20033;-71
2022/06/11 01:36:09;;;;;;;9.55;6.43;;;;;;;;;;5052066;28;20040;-71
2022/06/11 01:38:42;;;;;;;10.43;7.10;;;;;;;;;;5004816;28;20448;-71
2022/06/11 01:41:33;;;;;;;8.75;6.65;;;;;;;;;;5056475;28;20480;-71
2022/06/11 01:44:09;;;;;;;14.35;8.20;;;;;;;;;;5071725;28;20039;-72
2022/06/11 01:46:47;;;;;;;11.10;7.15;;;;;;;;;;5059003;28;20040;-71
2022/06/11 01:49:22;;;;;;;9.98;7.75;;;;;;;;;;5045789;28;20038;-71
2022/06/11 01:51:59;;;;;;;13.40;7.90;;;;;;;;;;5052914;28;20028;-71
2022/06/11 01:54:46;;;;;;;15.10;8.32;;;;;;;;;;5053274;28;20041;-71
2022/06/11 01:57:14;;;;;;;10.10;7.68;;;;;;;;;;5068637;28;20087;-72
2022/06/11 01:59:54;;;;;;;11.93;8.55;;;;;;;;;;5067821;28;20024;-71
2022/06/11 02:02:57;;;;;;;15.35;7.47;;;;;;;;;;5044451;28;20061;-70
2022/06/11 02:05:32;;;;;;;9.27;7.40;;;;;;;;;;5071411;28;20039;-71
2022/06/11 02:08:00;;;;;;;12.05;7.57;;;;;;;;;;5071986;28;20071;-71
2022/06/11 02:10:37;;;;;;;12.65;7.13;;;;;;;;;;5072268;28;20036;-71
2022/06/11 02:13:14;;;;;;;10.43;7.45;;;;;;;;;;5072337;28;20037;-70
2022/06/11 02:15:48;;;;;;;12.18;8.00;;;;;;;;;;5064721;28;20041;-71
2022/06/11 02:18:18;;;;;;;12.10;8.00;;;;;;;;;;5032074;28;20410;-71
2022/06/11 02:20:51;;;;;;;10.68;7.50;;;;;;;;;;5031260;28;20041;-71
2022/06/11 02:23:22;;;;;;;10.77;7.50;;;;;;;;;;5030849;28;20029;-71
2022/06/11 02:25:55;;;;;;;13.45;7.40;;;;;;;;;;5030111;28;20079;-71
2022/06/11 02:28:26;;;;;;;9.40;7.72;;;;;;;;;;5029963;28;20037;-71
2022/06/11 02:30:53;;;;;;;10.38;7.70;;;;;;;;;;5029601;28;20360;-71
2022/06/11 02:33:21;;;;;;;12.30;7.07;;;;;;;;;;5029836;28;20528;-71
2022/06/11 02:36:20;;;;;;;7.53;6.65;;;;;;;;;;5029337;28;20091;-73
2022/06/11 02:38:46;;;;;;;11.18;7.10;;;;;;;;;;5028214;28;20152;-71
2022/06/11 02:41:18;;;;;;;9.30;6.72;;;;;;;;;;5031369;28;20184;-71
2022/06/11 02:43:44;;;;;;;9.80;6.93;;;;;;;;;;5031869;28;20083;-71
2022/06/11 02:48:55;;;;;;;7.10;6.18;;;;;;;;;;5031510;28;20044;-70
2022/06/11 02:51:22;;;;;;;6.88;6.10;;;;;;;;;;5030822;28;20048;-71
2022/06/11 02:53:47;;;;;;;8.00;6.13;;;;;;;;;;5031832;28;20076;-71
2022/06/11 02:56:13;;;;;;;9.48;6.60;;;;;;;;;;5031482;28;20064;-71
2022/06/11 02:58:40;;;;;;;9.82;7.85;;;;;;;;;;5031450;28;20041;-71
2022/06/11 03:01:06;;;;;;;11.40;7.45;;;;;;;;;;5030954;28;20390;-71
2022/06/11 03:03:32;;;;;;;15.48;7.80;;;;;;;;;;5013846;28;20038;-71
2022/06/11 03:06:00;;;;;;;8.52;7.43;;;;;;;;;;5031319;28;20038;-71
2022/06/11 03:08:26;;;;;;;11.43;8.18;;;;;;;;;;5031203;28;20064;-71
2022/06/11 03:10:54;;;;;;;12.40;7.72;;;;;;;;;;5030764;28;20079;-71
2022/06/11 03:13:24;;;;;;;10.40;6.60;;;;;;;;;;5031421;28;20084;-71
2022/06/11 03:15:50;;;;;;;9.40;7.18;;;;;;;;;;5013437;28;20029;-71
2022/06/11 03:18:15;;;;;;;10.98;7.72;;;;;;;;;;5031084;28;20098;-71
2022/06/11 03:20:41;;;;;;;10.30;7.07;;;;;;;;;;5030648;28;20033;-71
2022/06/11 03:23:07;;;;;;;18.00;7.38;;;;;;;;;;5013642;28;20429;-71
2022/06/11 03:25:33;;;;;;;8.82;6.60;;;;;;;;;;5013580;28;20069;-70
2022/06/11 03:28:04;;;;;;;9.13;7.18;;;;;;;;;;5013196;28;20047;-71
2022/06/11 03:30:30;;;;;;;10.80;8.00;;;;;;;;;;5030871;28;20038;-71
2022/06/11 03:32:55;;;;;;;9.52;7.60;;;;;;;;;;5030720;28;20038;-71
2022/06/11 03:35:20;;;;;;;12.68;7.78;;;;;;;;;;5031085;28;20044;-70
2022/06/11 03:37:46;;;;;;;10.65;7.53;;;;;;;;;;5030934;28;20112;-71
2022/06/11 03:40:12;;;;;;;13.90;8.52;;;;;;;;;;5031095;28;20117;-71
2022/06/11 03:42:38;;;;;;;17.38;10.20;;;;;;;;;;5030552;28;20029;-71
2022/06/11 03:45:04;;;;;;;18.38;10.10;;;;;;;;;;5030855;28;20043;-71
2022/06/11 03:47:29;;;;;;;12.63;9.25;;;;;;;;;;5031120;28;20044;-71
2022/06/11 03:49:54;;;;;;;13.80;9.23;;;;;;;;;;5030871;28;20128;-71
2022/06/11 03:52:22;;;;;;;10.93;7.93;;;;;;;;;;5030340;28;20037;-70
2022/06/11 03:54:48;;;;;;;14.15;7.90;;;;;;;;;;5030929;28;20092;-71
2022/06/11 03:57:13;;;;;;;9.88;6.93;;;;;;;;;;5031084;28;20041;-71
2022/06/11 03:59:39;;;;;;;10.65;7.00;;;;;;;;;;5030761;28;20111;-71
2022/06/11 04:02:04;;;;;;;10.80;6.82;;;;;;;;;;5030364;28;20099;-71
2022/06/11 04:04:30;;;;;;;13.73;6.50;;;;;;;;;;5030684;28;20029;-71
2022/06/11 04:06:58;;;;;;;11.93;6.57;;;;;;;;;;5030754;28;20053;-71
2022/06/11 04:09:31;;;;;;;8.65;6.95;;;;;;;;;;5030817;28;20041;-72
2022/06/11 04:11:58;;;;;;;9.98;7.53;;;;;;;;;;5030407;28;20470;-71
2022/06/11 04:14:24;;;;;;;15.73;8.55;;;;;;;;;;5030486;28;20029;-71
2022/06/11 04:16:57;;;;;;;10.65;8.75;;;;;;;;;;5012925;28;20115;-71
2022/06/11 04:19:27;;;;;;;15.15;8.63;;;;;;;;;;5030381;28;20057;-71
2022/06/11 04:21:54;;;;;;;10.27;7.35;;;;;;;;;;5012332;28;20096;-71
2022/06/11 04:24:20;;;;;;;14.68;8.18;;;;;;;;;;5030800;28;20040;-71
2022/06/11 04:26:48;;;;;;;12.52;7.20;;;;;;;;;;5030671;28;20049;-71
2022/06/11 04:29:18;;;;;;;7.53;6.38;;;;;;;;;;5012751;28;20037;-71
2022/06/11 04:31:46;;;;;;;9.50;6.32;;;;;;;;;;5029909;28;20075;-71
2022/06/11 04:34:13;;;;;;;9.55;6.10;;;;;;;;;;5030419;28;20041;-72
2022/06/11 04:36:39;;;;;;;6.65;5.90;;;;;;;;;;5030330;28;20037;-71
2022/06/11 04:39:07;;;;;;;8.65;5.57;;;;;;;;;;5030205;28;20033;-71
2022/06/11 04:41:33;;;;;;;7.90;5.82;;;;;;;;;;5033286;28;20033;-71
2022/06/11 04:43:58;;;;;;;13.70;5.70;;;;;;;;;;5033689;28;20112;-72
2022/06/11 04:46:24;;;;;;;7.60;5.40;;;;;;;;;;5033747;28;20829;-71
2022/06/11 04:48:50;;;;;;;6.03;5.38;;;;;;;;;;5033883;28;20038;-71
2022/06/11 04:51:16;;;;;;;7.15;5.38;;;;;;;;;;5032909;28;20037;-71
2022/06/11 04:53:44;;;;;;;5.25;4.72;;;;;;;;;;5015727;28;20031;-71
2022/06/11 04:56:13;;;;;;;10.75;5.38;;;;;;;;;;5033364;28;20037;-71
2022/06/11 04:58:38;;;;;;;7.07;5.50;;;;;;;;;;5033485;28;20482;-72
2022/06/11 05:01:03;;;;;;;10.52;4.70;;;;;;;;;;5032724;28;20048;-71
2022/06/11 05:03:29;;;;;;;9.00;3.72;;;;;;;;;;5033434;28;20026;-72
2022/06/11 05:05:55;;;;;;;3.30;3.00;;;;;;;;;;5033191;28;20029;-71
2022/06/11 05:08:20;;;;;;;5.13;3.05;;;;;;;;;;5031000;28;20648;-71
2022/06/11 05:10:46;;;;;;;3.58;3.28;;;;;;;;;;5033099;28;20041;-72
2022/06/11 05:13:12;;;;;;;3.35;3.05;;;;;;;;;;5032552;28;20044;-71
2022/06/11 05:15:42;;;;;;;3.80;3.30;;;;;;;;;;5032635;28;20059;-72
2022/06/11 05:18:07;;;;;;;3.53;3.00;;;;;;;;;;5033025;28;20033;-72
2022/06/11 05:20:33;;;;;;;3.90;2.90;;;;;;;;;;5033172;28;20034;-71
2022/06/11 05:22:59;;;;;;;4.20;3.15;;;;;;;;;;5032480;28;20045;-69
2022/06/11 05:25:25;;;;;;;7.20;2.50;;;;;;;;;;5032934;28;20468;-70
2022/06/11 05:27:50;;;;;;;3.85;2.40;;;;;;;;;;5032667;28;20548;-71
2022/06/11 05:30:24;;;;;;;3.67;2.58;;;;;;;;;;5032610;28;20041;-71
2022/06/11 05:32:49;;;;;;;4.30;2.75;;;;;;;;;;5032171;28;20041;-70
2022/06/11 05:35:19;;;;;;;3.85;2.63;;;;;;;;;;5032715;28;20040;-71
2022/06/11 05:37:47;;;;;;;6.40;2.58;;;;;;;;;;5032430;28;20040;-71
2022/06/11 05:40:16;;;;;;;2.55;2.22;;;;;;;;;;5032651;28;20033;-71
2022/06/11 05:42:47;;;;;;;2.40;2.20;;;;;;;;;;5032134;28;20029;-71
2022/06/11 05:45:19;;;;;;;2.63;2.25;;;;;;;;;;5032407;28;20090;-71
2022/06/11 05:47:45;;;;;;;3.80;2.50;;;;;;;;;;5032549;28;20041;-71
2022/06/11 05:50:15;;;;;;;6.70;2.50;;;;;;;;;;5032039;28;20079;-72
2022/06/11 05:52:45;;;;;;;3.50;2.28;;;;;;;;;;5014058;28;20471;-73
2022/06/11 05:55:13;;;;;;;7.20;2.47;;;;;;;;;;5014595;28;20033;-71
2022/06/11 05:57:39;;;;;;;2.70;2.25;;;;;;;;;;5032582;28;20037;-71
2022/06/11 06:00:10;;;;;;;2.80;2.45;;;;;;;;;;5032238;28;20030;-72
2022/06/11 06:02:43;;;;;;;2.80;1.92;;;;;;;;;;5031935;28;20072;-72
2022/06/11 06:05:09;;;;;;;2.85;2.40;;;;;;;;;;5032327;28;20121;-71
2022/06/11 06:07:35;;;;;;;3.45;2.60;;;;;;;;;;5012729;28;20041;-72
2022/06/11 06:10:00;;;;;;;5.25;1.98;;;;;;;;;;5014436;28;20048;-71
2022/06/11 06:12:30;;;;;;;3.42;1.90;;;;;;;;;;5031541;28;20188;-71
2022/06/11 06:15:09;;;;;;;2.83;2.30;;;;;;;;;;5032260;28;20061;-71
2022/06/11 06:17:36;;;;;;;5.78;2.58;;;;;;;;;;5032208;28;20044;-71
2022/06/11 06:20:04;;;;;;;4.28;2.45;;;;;;;;;;5032078;28;20025;-71
2022/06/11 06:22:29;;;;;;;2.65;2.00;;;;;;;;;;5013773;28;20037;-72
2022/06/11 06:24:54;;;;;;;3.53;2.30;;;;;;;;;;5032113;28;20096;-71
2022/06/11 06:27:20;;;;;;;2.35;2.15;;;;;;;;;;5032296;28;20040;-71
2022/06/11 06:29:45;;;;;;;2.20;1.98;;;;;;;;;;5031948;28;20038;-71
2022/06/11 06:32:11;;;;;;;2.47;1.95;;;;;;;;;;5031633;28;20040;-71
2022/06/11 06:34:37;;;;;;;2.72;1.98;;;;;;;;;;5031904;28;20143;-71
2022/06/11 06:37:02;;;;;;;3.38;2.10;;;;;;;;;;5031701;28;20439;-71
2022/06/11 06:39:28;;;;;;;7.40;2.00;;;;;;;;;;5031936;28;20044;-72
2022/06/11 06:41:54;;;;;;;3.83;2.13;;;;;;;;;;5031095;28;20037;-71
2022/06/11 06:44:19;;;;;;;1.88;1.77;;;;;;;;;;5031864;28;20084;-71
2022/06/11 06:46:45;;;;;;;6.35;1.88;;;;;;;;;;5031478;28;20791;-71
2022/06/11 06:49:11;;;;;;;1.77;1.67;;;;;;;;;;5031560;28;20033;-71
2022/06/11 06:51:36;;;;;;;3.22;1.75;;;;;;;;;;5031219;28;20056;-71
2022/06/11 06:54:02;;;;;;;7.50;1.73;;;;;;;;;;5031700;28;20037;-71
2022/06/11 06:56:33;;;;;;;3.08;2.00;;;;;;;;;;5031636;28;20036;-71
2022/06/11 06:59:00;;;;;;;2.37;2.17;;;;;;;;;;5031652;28;20502;-71
2022/06/11 07:01:26;;;;;;;3.20;2.10;;;;;;;;;;5030909;28;20037;-71
2022/06/11 07:03:52;;;;;;;2.03;1.85;;;;;;;;;;5030991;28;20047;-71
2022/06/11 07:06:18;;;;;;;2.72;2.03;;;;;;;;;;5031165;28;20037;-71
2022/06/11 07:08:44;;;;;;;3.45;1.88;;;;;;;;;;5031472;28;20032;-71
2022/06/11 07:11:09;;;;;;;1.77;1.67;;;;;;;;;;5030773;28;20044;-71
2022/06/11 07:13:35;;;;;;;6.63;2.30;;;;;;;;;;5031362;28;20265;-72
2022/06/11 07:16:02;;;;;;;2.80;1.80;;;;;;;;;;5031196;28;20108;-71
2022/06/11 07:18:35;;;;;;;3.60;1.65;;;;;;;;;;5031104;28;20117;-72
2022/06/11 07:21:06;;;;;;;3.55;1.73;;;;;;;;;;5013217;28;20042;-72
2022/06/11 07:23:38;;;;;;;5.22;1.98;;;;;;;;;;5031611;28;20043;-71
2022/06/11 07:26:09;;;;;;;4.75;2.00;;;;;;;;;;5031036;28;20059;-72
2022/06/11 07:28:40;;;;;;;3.53;1.70;;;;;;;;;;5031152;28;20037;-72
2022/06/11 07:31:05;;;;;;;3.75;1.98;;;;;;;;;;5030646;28;20099;-72
2022/06/11 07:33:31;;;;;;;3.60;1.70;;;;;;;;;;5031114;28;20033;-72
2022/06/11 07:35:58;;;;;;;2.17;1.52;;;;;;;;;;5031044;28;20063;-72
2022/06/11 07:38:25;;;;;;;2.80;1.77;;;;;;;;;;5013838;28;20533;-71
2022/06/11 07:40:51;;;;;;;2.05;1.70;;;;;;;;;;5031190;28;20160;-72
2022/06/11 07:43:16;;;;;;;2.47;1.80;;;;;;;;;;5030544;28;20038;-72
2022/06/11 07:45:43;;;;;;;2.60;1.70;;;;;;;;;;4997045;28;20061;-72
2022/06/11 07:48:09;;;;;;;3.72;1.50;;;;;;;;;;5013420;28;20082;-73
2022/06/11 07:50:39;;;;;;;1.45;1.35;;;;;;;;;;5031059;28;20033;-72
2022/06/11 07:53:06;;;;;;;4.95;1.55;;;;;;;;;;5030628;28;20042;-72
2022/06/11 07:55:34;;;;;;;3.78;1.88;;;;;;;;;;5030979;28;20043;-73
2022/06/11 07:58:00;;;;;;;2.05;1.85;;;;;;;;;;5030825;28;20045;-72
2022/06/11 08:00:29;;;;;;;5.13;1.70;;;;;;;;;;5030810;28;20033;-72
2022/06/11 08:02:54;;;;;;;2.88;1.73;;;;;;;;;;5030374;28;20048;-72
2022/06/11 08:05:20;;;;;;;1.88;1.73;;;;;;;;;;5030863;28;20041;-72
2022/06/11 08:07:46;;;;;;;2.28;2.03;;;;;;;;;;5027753;28;20041;-72
2022/06/11 08:10:13;;;;;;;1.67;1.58;;;;;;;;;;5030649;28;20459;-72
2022/06/11 08:12:40;;;;;;;1.88;1.70;;;;;;;;;;5030321;28;20034;-72
2022/06/11 08:15:06;;;;;;;2.58;1.92;;;;;;;;;;5034046;28;20146;-73
2022/06/11 08:17:33;;;;;;;1.70;1.45;;;;;;;;;;5016712;28;20029;-71
2022/06/11 08:20:00;;;;;;;3.53;1.63;;;;;;;;;;5034463;28;20099;-71
2022/06/11 08:22:26;;;;;;;4.30;1.42;;;;;;;;;;5033792;28;20049;-71
2022/06/11 08:24:52;;;;;;;2.00;1.70;;;;;;;;;;5034325;28;20082;-71
2022/06/11 08:27:17;;;;;;;4.65;1.23;;;;;;;;;;5034395;28;20033;-71
2022/06/11 08:29:44;;;;;;;3.55;1.55;;;;;;;;;;5034240;28;20040;-71
2022/06/11 08:32:10;;;;;;;3.35;1.63;;;;;;;;;;5033712;28;20112;-72
2022/06/11 08:34:41;;;;;;;1.70;1.40;;;;;;;;;;5034290;28;20037;-71
2022/06/11 08:37:08;;;;;;;1.60;1.50;;;;;;;;;;5034016;28;20064;-71
2022/06/11 08:39:34;;;;;;;1.58;1.30;;;;;;;;;;5034208;28;20029;-71
2022/06/11 08:42:01;;;;;;;2.45;1.38;;;;;;;;;;5015870;28;20037;-71
2022/06/11 08:44:28;;;;;;;5.78;1.63;;;;;;;;;;5034023;28;20048;-71
2022/06/11 08:46:57;;;;;;;2.03;1.60;;;;;;;;;;5034021;28;20041;-71
2022/06/11 08:49:37;;;;;;;2.13;1.50;;;;;;;;;;5015904;28;20033;-71
2022/06/11 08:52:11;;;;;;;2.20;1.33;;;;;;;;;;5033251;28;20037;-71
2022/06/11 08:54:40;;;;;;;3.55;1.77;;;;;;;;;;5033727;28;20060;-72
2022/06/11 08:57:29;;;;;;;2.75;1.40;;;;;;;;;;5033860;28;20120;-71
2022/06/11 08:59:57;;;;;;;2.67;1.50;;;;;;;;;;5003785;28;20107;-71
2022/06/11 09:02:36;;;;;;;3.08;1.55;;;;;;;;;;5033171;28;20544;-71
2022/06/11 09:05:01;;;;;;;2.38;1.50;;;;;;;;;;5033752;28;20025;-71
2022/06/11 09:07:53;;;;;;;2.28;1.35;;;;;;;;;;5033750;28;20056;-71
2022/06/11 09:10:24;;;;;;;;;;;;;;;;;;5033691;28;20044;-71
2022/06/11 09:13:25;;;;;;;1.52;1.27;;;;;;;;;;5033049;28;19946;-72
2022/06/11 09:16:09;;;;;;;;;;;;;;;;;;5033918;28;20412;-71
2022/06/11 09:19:04;;;;;;;8.45;1.70;;;;;;;;;;5032054;28;19920;-72
2022/06/11 09:21:32;;;;;;;2.22;1.42;;;;;;;;;;5032705;28;20046;-71
2022/06/11 09:24:10;;;;;;;2.13;1.33;;;;;;;;;;4999148;28;20497;-71
2022/06/11 09:27:06;;;;;;;3.83;1.60;;;;;;;;;;5032875;28;20122;-71
2022/06/11 09:29:42;;;;;;;2.90;1.40;;;;;;;;;;5024959;28;20084;-72
2022/06/11 09:32:13;;;;;;;2.65;1.40;;;;;;;;;;5032785;28;20033;-72
2022/06/11 09:34:56;;;;;;;1.40;1.30;;;;;;;;;;5033455;28;20030;-71
2022/06/11 09:37:34;;;;;;;5.47;1.90;;;;;;;;;;5033008;28;20087;-72
2022/06/11 09:40:37;;;;;;;1.85;1.45;;;;;;;;;;5033008;28;20056;-72
2022/06/11 09:43:14;;;;;;;1.48;1.33;;;;;;;;;;5032612;28;20471;-72
2022/06/11 09:45:58;;;;;;;2.53;1.23;;;;;;;;;;5032646;28;20086;-72
2022/06/11 09:48:41;;;;;;;1.60;1.50;;;;;;;;;;5032781;28;20456;-71
2022/06/11 09:51:21;;;;;;;1.67;1.27;;;;;;;;;;5032829;28;20041;-71
2022/06/11 09:53:53;;;;;;;1.75;1.65;;;;;;;;;;5015034;28;20041;-71
2022/06/11 09:56:41;;;;;;;1.67;1.55;;;;;;;;;;5032528;28;20037;-71
2022/06/11 09:59:35;;;;;;;1.60;1.35;;;;;;;;;;5032706;28;20037;-72
2022/06/11 10:02:06;;;;;;;3.47;1.40;;;;;;;;;;5032556;28;20033;-72
2022/06/11 10:04:34;;;;;;;;;;;;;;;;;;5033045;28;20029;-73
2022/06/11 10:07:05;;;;;;;2.88;1.60;;;;;;;;;;5032430;28;19912;-72
2022/06/11 10:09:40;;;;;;;3.42;1.45;;;;;;;;;;5032240;28;20033;-72
2022/06/11 10:12:18;;;;;;;5.60;1.65;;;;;;;;;;5014032;28;20045;-71
2022/06/11 10:15:04;;;;;;;2.15;1.40;;;;;;;;;;5032287;28;20033;-72
2022/06/11 10:17:48;;;;;;;2.55;1.27;;;;;;;;;;5032170;28;20041;-72
2022/06/11 10:20:20;;;;;;;1.20;1.10;;;;;;;;;;5032024;28;20033;-72
2022/06/11 10:22:49;;;;;;;1.67;1.42;;;;;;;;;;5031699;28;20025;-72
2022/06/11 10:25:34;;;;;;;1.63;1.25;;;;;;;;;;5031989;28;20039;-72
2022/06/11 10:28:23;;;;;;;2.92;1.48;;;;;;;;;;5032177;28;20553;-71
2022/06/11 10:30:57;;;;;;;4.30;1.15;;;;;;;;;;5031885;28;20052;-72
2022/06/11 10:33:38;;;;;;;7.38;1.40;;;;;;;;;;5031579;28;20143;-72
2022/06/11 10:36:15;;;;;;;2.35;1.48;;;;;;;;;;5031821;28;20037;-72
2022/06/11 10:38:49;;;;;;;1.77;1.40;;;;;;;;;;5030822;28;20112;-72
2022/06/11 10:41:30;;;;;;;1.95;1.35;;;;;;;;;;5031461;28;20044;-72
2022/06/11 10:44:04;;;;;;;1.88;1.10;;;;;;;;;;5031656;28;20316;-70
2022/06/11 10:46:33;;;;;;;2.78;1.30;;;;;;;;;;5013842;28;20037;-70
2022/06/11 10:48:59;;;;;;;2.15;1.50;;;;;;;;;;5031285;28;20048;-70
2022/06/11 10:51:30;;;;;;;4.05;1.33;;;;;;;;;;5030581;28;20121;-70
2022/06/11 10:53:59;;;;;;;2.00;1.30;;;;;;;;;;5031678;28;20383;-71
2022/06/11 10:56:43;;;;;;;5.88;1.40;;;;;;;;;;5031383;28;20033;-71
2022/06/11 10:59:20;;;;;;;2.05;1.60;;;;;;;;;;5031393;28;20545;-71
2022/06/11 11:02:11;;;;;;;3.55;1.48;;;;;;;;;;5031283;28;20069;-70
2022/06/11 11:04:40;;;;;;;3.73;1.50;;;;;;;;;;5031358;28;20033;-71
2022/06/11 11:07:13;;;;;;;3.88;1.35;;;;;;;;;;5029011;28;20284;-71
2022/06/11 11:09:39;;;;;;;4.95;1.40;;;;;;;;;;5031274;28;20066;-71
2022/06/11 11:12:07;;;;;;;3.40;1.63;;;;;;;;;;5030713;28;20470;-71
2022/06/11 11:14:40;;;;;;;3.10;1.67;;;;;;;;;;5031035;28;20037;-71
2022/06/11 11:17:15;;;;;;;2.20;1.50;;;;;;;;;;5031271;28;20040;-71
2022/06/11 11:19:44;;;;;;;1.83;1.30;;;;;;;;;;5031226;28;20033;-71
2022/06/11 11:22:17;;;;;;;3.25;1.40;;;;;;;;;;5030606;28;20030;-71
2022/06/11 11:24:46;;;;;;;1.73;1.60;;;;;;;;;;5031307;28;20051;-71
2022/06/11 11:27:22;;;;;;;2.53;1.40;;;;;;;;;;5031200;28;20060;-71
2022/06/11 11:29:54;;;;;;;1.85;1.42;;;;;;;;;;5031211;28;20071;-71
2022/06/11 11:32:35;;;;;;;1.35;1.25;;;;;;;;;;5030419;28;20467;-71
2022/06/11 11:35:24;;;;;;;3.33;1.52;;;;;;;;;;5031076;28;20060;-71
2022/06/11 11:38:03;;;;;;;1.42;1.20;;;;;;;;;;5021706;28;20045;-71
2022/06/11 11:40:47;;;;;;;1.70;1.17;;;;;;;;;;5031210;28;20025;-72
2022/06/11 11:43:15;;;;;;;1.55;1.20;;;;;;;;;;5030774;28;20048;-71
2022/06/11 11:45:47;;;;;;;4.45;1.20;;;;;;;;;;5030842;28;20037;-71
2022/06/11 11:48:27;;;;;;;2.40;1.48;;;;;;;;;;5031389;28;20029;-71
2022/06/11 11:51:01;;;;;;;1.70;1.10;;;;;;;;;;5034878;28;20489;-71
2022/06/11 11:53:44;;;;;;;2.00;1.15;;;;;;;;;;5017025;28;20041;-72
2022/06/11 11:56:25;;;;;;;1.30;1.20;;;;;;;;;;5034778;28;20482;-71
2022/06/11 11:58:55;;;;;;;2.70;1.10;;;;;;;;;;5035106;28;20479;-71
2022/06/11 12:01:22;;;;;;;1.92;1.08;;;;;;;;;;5034883;28;20486;-71
2022/06/11 12:04:18;;;;;;;3.90;1.30;;;;;;;;;;5000098;28;20037;-72
2022/06/11 12:06:54;;;;;;;1.20;1.10;;;;;;;;;;5032487;28;20048;-72
2022/06/11 12:09:48;;;;;;;2.13;1.27;;;;;;;;;;5035449;28;20033;-72
2022/06/11 12:12:34;;;;;;;1.23;1.13;;;;;;;;;;5033983;28;20132;-70
2022/06/11 12:15:13;;;;;;;1.20;1.02;;;;;;;;;;5034639;28;20052;-72
2022/06/11 12:17:43;;;;;;;2.88;1.60;;;;;;;;;;5034518;28;20041;-70
2022/06/11 12:20:27;;;;;;;2.50;1.20;;;;;;;;;;5034421;28;20038;-71
2022/06/11 12:23:04;;;;;;;1.15;1.05;;;;;;;;;;5033794;28;20034;-70
2022/06/11 12:25:45;;;;;;;2.20;1.25;;;;;;;;;;5034359;28;20029;-72
2022/06/11 12:28:14;;;;;;;1.30;1.20;;;;;;;;;;5034522;28;20037;-73
2022/06/11 12:30:40;;;;;;;1.92;1.40;;;;;;;;;;5034207;28;20486;-73
2022/06/11 12:33:11;;;;;;;4.57;1.30;;;;;;;;;;5033724;28;20052;-71
2022/06/11 12:36:12;;;;;;;2.53;1.17;;;;;;;;;;5034067;28;20030;-72
2022/06/11 12:38:53;;;;;;;2.28;1.27;;;;;;;;;;5017108;28;20041;-71
2022/06/11 12:41:36;;;;;;;2.07;1.50;;;;;;;;;;5016276;28;20034;-72
2022/06/11 12:44:26;;;;;;;1.77;1.30;;;;;;;;;;5034024;28;20053;-72
2022/06/11 12:47:02;;;;;;;1.20;1.00;;;;;;;;;;5033902;28;20030;-72
2022/06/11 12:49:58;;;;;;;2.67;1.20;;;;;;;;;;5034023;28;20064;-72
2022/06/11 12:52:31;;;;;;;1.73;1.10;;;;;;;;;;5033610;28;20042;-71
2022/06/11 12:55:21;;;;;;;1.10;1.00;;;;;;;;;;5016093;28;20103;-72
2022/06/11 12:58:26;;;;;;;1.52;0.90;;;;;;;;;;5033787;28;20029;-70
2022/06/11 13:00:59;;;;;;;1.80;1.10;;;;;;;;;;5032545;28;20142;-70
2022/06/11 13:03:55;;;;;;;1.83;1.10;;;;;;;;;;5033286;28;20033;-70
2022/06/11 13:06:39;;;;;;;1.20;1.20;;;;;;;;;;5031794;28;20077;-72
2022/06/11 13:09:34;;;;;;;1.30;1.00;;;;;;;;;;5033512;28;20406;-70
2022/06/11 13:12:22;;;;;;;1.20;1.17;;;;;;;;;;5032941;28;20835;-70
2022/06/11 13:15:02;;;;;;;1.65;1.20;;;;;;;;;;5033588;28;20033;-70
2022/06/11 13:17:45;;;;;;;3.53;1.17;;;;;;;;;;5033282;28;20048;-70
2022/06/11 13:20:15;;;;;;;1.48;1.38;;;;;;;;;;5033152;28;20500;-70
2022/06/11 13:23:16;;;;;;;5.22;1.20;;;;;;;;;;5033317;28;20029;-69
2022/06/11 13:26:11;;;;;;;1.55;0.98;;;;;;;;;;5015300;28;20490;-69
2022/06/11 13:29:09;;;;;;;1.65;1.08;;;;;;;;;;5033038;28;20041;-70
2022/06/11 13:31:48;;;;;;;2.25;1.08;;;;;;;;;;5032931;28;20033;-72
2022/06/11 13:34:20;;;;;;;2.65;1.10;;;;;;;;;;5033138;28;20037;-69
2022/06/11 13:37:13;;;;;;;1.52;1.40;;;;;;;;;;5032831;28;20033;-69
2022/06/11 13:40:12;;;;;;;1.23;1.13;;;;;;;;;;5015210;28;20120;-71
2022/06/11 13:42:57;;;;;;;1.67;1.10;;;;;;;;;;5032266;28;20037;-71
2022/06/11 13:45:37;;;;;;;3.75;1.13;;;;;;;;;;5032800;28;20037;-69
2022/06/11 13:48:26;;;;;;;0.85;0.85;;;;;;;;;;5014925;28;20041;-73
2022/06/11 13:50:59;;;;;;;1.50;1.40;;;;;;;;;;5032590;28;20087;-69
2022/06/11 13:57:03;;;;;;;1.17;1.08;;;;;;;;;;5032191;28;20036;-71
2022/06/11 13:59:37;;;;;;;3.03;1.00;;;;;;;;;;5012918;28;20038;-72
2022/06/11 14:02:21;;;;;;;2.90;1.00;;;;;;;;;;5033366;28;20029;-69
2022/06/11 14:04:50;;;;;;;1.38;1.05;;;;;;;;;;5017315;28;20037;-69
2022/06/11 14:07:24;;;;;;;3.10;1.13;;;;;;;;;;5030558;28;20075;-70
2022/06/11 14:10:21;;;;;;;2.80;0.85;;;;;;;;;;5032254;28;20033;-70
2022/06/11 14:12:57;;;;;;;1.50;1.00;;;;;;;;;;5015783;28;20033;-70
2022/06/11 14:15:39;;;;;;;3.25;1.45;;;;;;;;;;4999501;28;20049;-70
2022/06/11 14:18:26;;;;;;;1.73;1.00;;;;;;;;;;5032564;28;20131;-70
2022/06/11 14:20:55;;;;;;;1.33;1.10;;;;;;;;;;5032010;28;20075;-71
2022/06/11 14:23:20;;;;;;;1.30;0.90;;;;;;;;;;5031709;28;20025;-72
2022/06/11 14:25:53;;;;;;;2.42;0.85;;;;;;;;;;5014192;28;20430;-71
2022/06/11 14:28:19;;;;;;;2.47;1.20;;;;;;;;;;5032157;28;20037;-71
2022/06/11 14:30:53;;;;;;;1.67;0.90;;;;;;;;;;5031832;28;20033;-73
2022/06/11 14:33:35;;;;;;;1.20;1.05;;;;;;;;;;5013677;28;20033;-70
2022/06/11 14:36:17;;;;;;;3.58;1.40;;;;;;;;;;5031853;28;20094;-70
2022/06/11 14:38:55;;;;;;;1.35;1.00;;;;;;;;;;5031826;28;20059;-71
2022/06/11 14:41:43;;;;;;;1.02;1.00;;;;;;;;;;5031510;28;20080;-70
2022/06/11 14:44:16;;;;;;;2.30;1.27;;;;;;;;;;5031123;28;20128;-70
2022/06/11 14:46:42;;;;;;;0.80;0.80;;;;;;;;;;5031534;28;20087;-70
2022/06/11 14:49:36;;;;;;;1.23;1.10;;;;;;;;;;5031362;28;20428;-69
2022/06/11 14:52:04;;;;;;;4.00;1.33;;;;;;;;;;5030729;28;20466;-70
2022/06/11 14:54:34;;;;;;;1.13;1.02;;;;;;;;;;5031314;28;20048;-69
2022/06/11 14:57:12;;;;;;;2.42;1.30;;;;;;;;;;5031303;28;20045;-70
2022/06/11 14:59:49;;;;;;;2.13;1.30;;;;;;;;;;5031301;28;20030;-70
2022/06/11 15:02:30;;;;;;;3.38;1.20;;;;;;;;;;5030705;28;20049;-70
2022/06/11 15:05:11;;;;;;;1.65;1.10;;;;;;;;;;5013620;28;20033;-70
2022/06/11 15:07:51;;;;;;;3.75;1.20;;;;;;;;;;5029296;28;20037;-70
2022/06/11 15:10:48;;;;;;;1.75;1.13;;;;;;;;;;5031032;28;20121;-70
2022/06/11 15:13:47;;;;;;;2.35;1.00;;;;;;;;;;5026651;28;20045;-70
2022/06/11 15:16:27;;;;;;;2.35;1.10;;;;;;;;;;5002457;28;20050;-70
2022/06/11 15:19:00;;;;;;;1.40;1.15;;;;;;;;;;5013200;28;20043;-70
2022/06/11 15:21:34;;;;;;;2.33;1.10;;;;;;;;;;5031149;28;20051;-69
2022/06/11 15:24:07;;;;;;;1.30;1.10;;;;;;;;;;5030165;28;20098;-72